createdAt,value
2022-12-25T00:01:52.126Z,10.00
2022-12-25T00:04:19.682Z,12.50
2022-12-25T00:06:47.186Z,10.75
2022-12-25T00:09:14.718Z,11.05
2022-12-25T00:11:42.313Z,12.15
2022-12-25T00:14:09.835Z,10.32
2022-12-25T00:16:37.514Z,11.48
2022-12-25T00:19:05.113Z,10.82
2022-12-25T00:21:33.283Z,11.60
2022-12-25T00:24:01.631Z,10.20
2022-12-25T00:26:29.455Z,9.95
2022-12-25T00:28:58.595Z,9.20
2022-12-25T00:31:27.271Z,9.25
2022-12-25T00:33:54.846Z,10.43
2022-12-25T00:36:23.850Z,10.05
2022-12-25T00:38:51.503Z,11.30
2022-12-25T00:41:43.109Z,10.13
2022-12-25T00:44:13.734Z,9.48
2022-12-25T00:46:42.362Z,9.20
2022-12-25T00:49:11.165Z,11.52
2022-12-25T00:51:38.749Z,11.73
2022-12-25T00:54:06.523Z,8.85
2022-12-25T00:56:34.081Z,10.20
2022-12-25T00:59:01.613Z,11.02
2022-12-25T01:01:29.243Z,10.20
2022-12-25T01:03:57.051Z,10.52
2022-12-25T01:06:24.566Z,9.50
2022-12-25T01:09:17.993Z,10.02
2022-12-25T01:11:45.584Z,11.70
2022-12-25T01:14:13.715Z,10.00
2022-12-25T01:16:41.414Z,10.00
2022-12-25T01:19:09.602Z,10.20
2022-12-25T01:21:37.173Z,10.45
2022-12-25T01:24:05.081Z,11.93
2022-12-25T01:26:32.596Z,9.38
2022-12-25T01:29:00.102Z,11.23
2022-12-25T01:31:27.726Z,10.40
2022-12-25T01:33:55.322Z,11.07
2022-12-25T01:36:25.551Z,11.38
2022-12-25T01:38:54.601Z,10.85
2022-12-25T01:41:24.865Z,13.80
2022-12-25T01:44:09.608Z,10.48
2022-12-25T01:46:37.368Z,14.07
2022-12-25T01:49:09.114Z,13.90
2022-12-25T01:51:42.025Z,11.27
2022-12-25T01:54:32.378Z,12.05
2022-12-25T01:57:03.862Z,12.93
2022-12-25T01:59:31.420Z,12.27
2022-12-25T02:02:00.534Z,11.32
2022-12-25T02:04:39.521Z,11.30
2022-12-25T02:07:14.732Z,14.68
2022-12-25T02:09:43.014Z,12.02
2022-12-25T02:12:15.915Z,12.00
2022-12-25T02:14:43.543Z,12.77
2022-12-25T02:17:17.198Z,11.15
2022-12-25T02:20:09.174Z,12.27
2022-12-25T02:22:51.612Z,12.27
2022-12-25T02:25:31.059Z,11.70
2022-12-25T02:28:01.199Z,12.38
2022-12-25T02:30:35.387Z,13.23
2022-12-25T02:33:27.737Z,12.57
2022-12-25T02:35:58.021Z,13.02
2022-12-25T02:38:32.984Z,14.05
2022-12-25T02:41:07.160Z,12.48
2022-12-25T02:43:57.693Z,13.82
2022-12-25T02:46:44.510Z,14.40
2022-12-25T02:49:40.662Z,12.40
2022-12-25T02:52:35.765Z,12.10
2022-12-25T02:55:30.521Z,11.63
2022-12-25T02:58:19.469Z,14.15
2022-12-25T03:01:08.074Z,13.68
2022-12-25T03:03:58.416Z,15.35
2022-12-25T03:06:44.753Z,12.55
2022-12-25T03:09:35.727Z,11.75
2022-12-25T03:12:26.327Z,14.10
2022-12-25T03:15:11.534Z,11.93
2022-12-25T03:17:39.114Z,12.38
2022-12-25T03:20:25.570Z,12.48
2022-12-25T03:23:11.972Z,10.88
2022-12-25T03:25:57.340Z,13.48
2022-12-25T03:28:24.882Z,11.45
2022-12-25T03:31:21.408Z,12.05
2022-12-25T03:34:48.118Z,12.60
2022-12-25T03:38:04.464Z,11.40
2022-12-25T03:40:52.510Z,11.25
2022-12-25T03:44:06.752Z,11.13
2022-12-25T03:47:07.083Z,15.43
2022-12-25T03:50:07.453Z,11.32
2022-12-25T03:52:54.670Z,10.65
2022-12-25T03:55:40.686Z,11.73
2022-12-25T03:58:39.134Z,12.52
2022-12-25T04:01:24.541Z,10.55
2022-12-25T04:04:09.557Z,10.55
2022-12-25T04:06:54.861Z,11.13
2022-12-25T04:09:39.809Z,11.07
2022-12-25T04:12:25.410Z,11.13
2022-12-25T04:15:10.693Z,10.20
2022-12-25T04:17:56.041Z,10.48
2022-12-25T04:20:49.265Z,11.52
2022-12-25T04:23:33.978Z,9.63
2022-12-25T04:26:19.000Z,7.97
2022-12-25T04:29:04.066Z,9.77
2022-12-25T04:31:48.917Z,8.80
2022-12-25T04:34:39.834Z,8.70
2022-12-25T04:37:07.368Z,9.15
2022-12-25T04:39:34.914Z,9.45
2022-12-25T04:42:02.437Z,7.90
2022-12-25T04:44:29.928Z,8.38
2022-12-25T04:46:57.482Z,8.02
2022-12-25T04:49:25.075Z,8.15
2022-12-25T04:51:52.764Z,8.07
2022-12-25T04:54:20.277Z,8.30
2022-12-25T04:56:47.838Z,6.55
2022-12-25T04:59:15.448Z,6.70
2022-12-25T05:01:43.171Z,6.80
2022-12-25T05:04:10.889Z,7.35
2022-12-25T05:06:39.022Z,7.40
2022-12-25T05:09:06.829Z,6.47
2022-12-25T05:11:34.297Z,6.40
2022-12-25T05:14:02.928Z,5.65
2022-12-25T05:16:30.684Z,6.93
2022-12-25T05:18:58.260Z,5.85
2022-12-25T05:21:26.266Z,5.13
2022-12-25T05:23:54.472Z,5.28
2022-12-25T05:26:25.956Z,7.63
2022-12-25T05:28:54.481Z,6.57
2022-12-25T05:31:22.416Z,5.22
2022-12-25T05:33:51.664Z,5.57
2022-12-25T05:36:20.107Z,4.80
2022-12-25T05:38:47.746Z,5.30
2022-12-25T05:41:15.499Z,4.97
2022-12-25T05:43:43.052Z,5.20
2022-12-25T05:46:11.923Z,4.18
2022-12-25T05:48:39.731Z,4.85
2022-12-25T05:51:09.397Z,6.72
2022-12-25T05:53:38.532Z,5.40
2022-12-25T05:56:08.465Z,4.20
2022-12-25T05:58:40.753Z,4.82
2022-12-25T06:01:13.254Z,5.20
2022-12-25T06:03:40.846Z,4.65
2022-12-25T06:06:08.588Z,5.07
2022-12-25T06:08:36.356Z,4.93
2022-12-25T06:11:05.806Z,4.70
2022-12-25T06:13:34.410Z,4.47
2022-12-25T06:16:08.546Z,4.43
2022-12-25T06:18:37.525Z,5.32
2022-12-25T06:21:13.449Z,4.55
2022-12-25T06:23:41.816Z,3.67
2022-12-25T06:26:12.096Z,3.80
2022-12-25T06:28:39.923Z,4.15
2022-12-25T06:31:09.730Z,4.68
2022-12-25T06:33:37.606Z,3.17
2022-12-25T06:36:27.043Z,2.90
2022-12-25T06:38:54.978Z,3.42
2022-12-25T06:41:25.165Z,3.42
2022-12-25T06:43:54.588Z,3.05
2022-12-25T06:46:24.319Z,3.10
2022-12-25T06:48:52.459Z,3.47
2022-12-25T06:51:22.573Z,3.88
2022-12-25T06:53:51.511Z,3.78
2022-12-25T06:56:22.224Z,3.05
2022-12-25T06:58:52.383Z,4.63
2022-12-25T07:01:24.010Z,5.78
2022-12-25T07:03:55.794Z,3.10
2022-12-25T07:06:23.687Z,2.97
2022-12-25T07:08:51.221Z,3.30
2022-12-25T07:11:19.101Z,2.90
2022-12-25T07:13:46.666Z,4.47
2022-12-25T07:16:15.557Z,2.90
2022-12-25T07:18:43.189Z,3.75
2022-12-25T07:21:13.889Z,2.65
2022-12-25T07:23:42.232Z,2.38
2022-12-25T07:26:11.518Z,3.20
2022-12-25T07:28:39.143Z,2.28
2022-12-25T07:31:13.938Z,4.40
2022-12-25T07:33:42.251Z,3.22
2022-12-25T07:36:13.072Z,3.00
2022-12-25T07:38:43.899Z,3.13
2022-12-25T07:41:13.045Z,3.10
2022-12-25T07:43:41.137Z,3.55
2022-12-25T07:46:09.412Z,3.92
2022-12-25T07:48:37.556Z,6.32
2022-12-25T07:51:07.683Z,2.63
2022-12-25T07:53:36.757Z,3.40
2022-12-25T07:56:08.955Z,3.67
2022-12-25T07:58:36.501Z,2.92
2022-12-25T08:01:27.097Z,3.75
2022-12-25T08:04:00.460Z,3.45
2022-12-25T08:06:32.539Z,3.47
2022-12-25T08:09:12.695Z,3.92
2022-12-25T08:11:40.723Z,3.47
2022-12-25T08:14:09.893Z,3.83
2022-12-25T08:16:39.805Z,4.10
2022-12-25T08:19:07.530Z,3.38
2022-12-25T08:21:35.089Z,4.50
2022-12-25T08:24:03.268Z,3.65
2022-12-25T08:26:31.278Z,3.60
2022-12-25T08:28:58.884Z,4.30
2022-12-25T08:31:28.858Z,4.97
2022-12-25T08:33:59.096Z,4.88
2022-12-25T08:36:27.160Z,5.15
2022-12-25T08:39:02.115Z,4.45
2022-12-25T08:41:30.438Z,3.63
2022-12-25T08:43:57.962Z,3.47
2022-12-25T08:46:25.706Z,3.00
2022-12-25T08:48:53.418Z,4.38
2022-12-25T08:51:22.805Z,4.70
2022-12-25T08:53:52.228Z,3.30
2022-12-25T08:56:21.281Z,3.28
2022-12-25T08:58:48.865Z,3.15
2022-12-25T09:01:16.452Z,3.92
2022-12-25T09:03:44.417Z,3.40
2022-12-25T09:06:14.615Z,3.75
2022-12-25T09:08:48.719Z,3.42
2022-12-25T09:11:18.121Z,4.47
2022-12-25T09:13:45.691Z,3.85
2022-12-25T09:16:16.352Z,3.88
2022-12-25T09:18:43.994Z,3.20
2022-12-25T09:21:14.800Z,4.78
2022-12-25T09:23:43.032Z,3.92
2022-12-25T09:26:14.121Z,3.70
2022-12-25T09:28:48.557Z,3.90
2022-12-25T09:31:18.718Z,4.00
2022-12-25T09:33:46.288Z,3.33
2022-12-25T09:36:13.787Z,3.65
2022-12-25T09:38:41.376Z,4.13
2022-12-25T09:41:17.295Z,4.32
2022-12-25T09:43:52.356Z,3.47
2022-12-25T09:46:24.485Z,4.03
2022-12-25T09:49:02.876Z,3.90
2022-12-25T09:51:32.214Z,5.38
2022-12-25T09:54:10.387Z,5.28
2022-12-25T09:56:39.956Z,4.53
2022-12-25T09:59:18.285Z,6.88
2022-12-25T10:02:23.801Z,4.07
2022-12-25T10:05:08.033Z,3.33
2022-12-25T10:07:50.813Z,4.43
2022-12-25T10:10:50.864Z,3.10
2022-12-25T10:13:36.295Z,3.55
2022-12-25T10:16:28.427Z,4.50
2022-12-25T10:19:41.486Z,3.63
2022-12-25T10:24:50.597Z,3.30
2022-12-25T10:27:32.437Z,3.42
2022-12-25T10:30:00.463Z,5.28
2022-12-25T10:32:28.043Z,4.32
2022-12-25T10:34:55.721Z,5.20
2022-12-25T10:37:23.291Z,4.82
2022-12-25T10:39:50.816Z,5.20
2022-12-25T10:42:56.446Z,6.40
2022-12-25T10:45:23.925Z,5.43
2022-12-25T10:47:59.621Z,5.20
2022-12-25T10:50:29.812Z,6.50
2022-12-25T10:53:04.367Z,7.15
2022-12-25T10:55:35.911Z,5.40
2022-12-25T10:58:03.461Z,4.13
2022-12-25T11:00:33.327Z,6.18
2022-12-25T11:03:01.704Z,4.68
2022-12-25T11:05:31.954Z,4.53
2022-12-25T11:08:01.492Z,3.83
2022-12-25T11:10:42.206Z,4.40
2022-12-25T11:13:21.850Z,4.13
2022-12-25T11:15:50.671Z,3.78
2022-12-25T11:18:22.561Z,3.63
2022-12-25T11:20:54.008Z,4.25
2022-12-25T11:23:24.205Z,4.10
2022-12-25T11:26:02.245Z,4.57
2022-12-25T11:28:32.131Z,4.97
2022-12-25T11:31:08.798Z,4.80
2022-12-25T11:33:41.540Z,3.90
2022-12-25T11:36:19.006Z,6.63
2022-12-25T11:38:46.581Z,3.63
2022-12-25T11:41:20.375Z,4.63
2022-12-25T11:43:58.000Z,4.32
2022-12-25T11:46:40.358Z,4.30
2022-12-25T11:49:14.918Z,5.78
2022-12-25T11:51:47.095Z,4.75
2022-12-25T11:54:26.357Z,4.35
2022-12-25T11:56:54.472Z,5.05
2022-12-25T11:59:31.321Z,5.45
2022-12-25T12:02:25.443Z,7.65
2022-12-25T12:05:04.963Z,6.35
2022-12-25T12:07:35.917Z,6.25
2022-12-25T12:10:22.131Z,6.38
2022-12-25T12:13:02.310Z,5.32
2022-12-25T12:15:31.745Z,5.15
2022-12-25T12:18:23.618Z,5.90
2022-12-25T12:21:21.675Z,5.60
2022-12-25T12:24:20.641Z,6.03
2022-12-25T12:27:00.110Z,5.75
2022-12-25T12:29:38.555Z,4.68
2022-12-25T12:32:07.552Z,5.45
2022-12-25T12:34:50.127Z,5.78
2022-12-25T12:39:55.160Z,5.63
2022-12-25T12:42:50.545Z,6.82
2022-12-25T12:45:25.094Z,6.78
2022-12-25T12:47:53.689Z,7.68
2022-12-25T12:50:32.290Z,6.00
2022-12-25T12:53:01.358Z,6.05
2022-12-25T12:55:35.320Z,7.03
2022-12-25T12:58:05.883Z,6.65
2022-12-25T13:00:47.937Z,7.05
2022-12-25T13:03:39.052Z,6.78
2022-12-25T13:06:18.389Z,6.03
2022-12-25T13:09:16.813Z,5.80
2022-12-25T13:11:45.274Z,5.72
2022-12-25T13:14:24.691Z,7.97
2022-12-25T13:16:55.470Z,6.60
2022-12-25T13:19:25.887Z,7.63
2022-12-25T13:22:00.272Z,6.88
2022-12-25T13:24:31.347Z,7.25
2022-12-25T13:27:00.061Z,7.07
2022-12-25T13:29:31.361Z,5.32
2022-12-25T13:32:00.729Z,7.22
2022-12-25T13:34:31.208Z,6.68
2022-12-25T13:37:09.477Z,6.35
2022-12-25T13:39:38.673Z,7.00
2022-12-25T13:42:09.945Z,6.60
2022-12-25T13:44:40.557Z,8.93
2022-12-25T13:47:23.418Z,7.38
2022-12-25T13:49:52.916Z,7.40
2022-12-25T13:52:25.582Z,7.68
2022-12-25T13:54:58.557Z,8.48
2022-12-25T13:57:34.266Z,7.80
2022-12-25T14:00:02.661Z,8.00
2022-12-25T14:02:40.536Z,8.32
2022-12-25T14:05:25.519Z,9.20
2022-12-25T14:07:54.865Z,9.07
2022-12-25T14:10:28.356Z,9.30
2022-12-25T14:12:59.395Z,7.97
2022-12-25T14:15:30.635Z,8.25
2022-12-25T14:17:59.082Z,8.60
2022-12-25T14:20:38.033Z,8.32
2022-12-25T14:23:06.486Z,9.25
2022-12-25T14:25:43.859Z,8.70
2022-12-25T14:28:21.475Z,11.00
2022-12-25T14:30:49.410Z,9.27
2022-12-25T14:33:20.799Z,9.40
2022-12-25T14:35:49.059Z,11.00
2022-12-25T14:38:30.020Z,9.52
2022-12-25T14:41:26.194Z,9.65
2022-12-25T14:43:57.091Z,9.90
2022-12-25T14:46:26.493Z,10.15
2022-12-25T14:49:05.473Z,8.90
2022-12-25T14:51:35.053Z,10.38
2022-12-25T14:54:14.942Z,13.65
2022-12-25T14:56:48.777Z,12.43
2022-12-25T14:59:25.437Z,10.10
2022-12-25T15:01:57.088Z,11.32
2022-12-25T15:04:25.937Z,14.18
2022-12-25T15:07:07.265Z,13.40
2022-12-25T15:09:36.146Z,11.63
2022-12-25T15:12:03.837Z,11.77
2022-12-25T15:14:31.719Z,14.20
2022-12-25T15:17:01.981Z,13.82
2022-12-25T15:19:37.831Z,9.65
2022-12-25T15:22:06.809Z,10.85
2022-12-25T15:24:34.513Z,9.25
2022-12-25T15:27:02.049Z,11.52
2022-12-25T15:30:07.821Z,13.00
2022-12-25T15:32:23.264Z,12.40
2022-12-25T15:34:51.315Z,11.10
2022-12-25T15:37:19.791Z,13.10
2022-12-25T15:39:47.833Z,13.38
2022-12-25T15:42:19.528Z,14.30
2022-12-25T15:44:47.223Z,8.68
2022-12-25T15:47:16.401Z,12.10
2022-12-25T15:49:44.469Z,12.23
2022-12-25T15:52:15.392Z,11.93
2022-12-25T15:54:42.884Z,13.48
2022-12-25T15:57:23.311Z,14.88
2022-12-25T15:59:50.824Z,17.05
2022-12-25T16:02:21.278Z,16.40
2022-12-25T16:04:51.037Z,17.45
2022-12-25T16:07:21.606Z,16.45
2022-12-25T16:09:49.181Z,17.83
2022-12-25T16:12:16.765Z,14.85
2022-12-25T16:14:44.398Z,13.32
2022-12-25T16:17:16.111Z,13.50
2022-12-25T16:19:44.909Z,16.35
2022-12-25T16:22:19.537Z,16.00
2022-12-25T16:24:47.082Z,13.50
2022-12-25T16:27:14.604Z,15.23
2022-12-25T16:29:43.057Z,17.65
2022-12-25T16:32:15.513Z,14.35
2022-12-25T16:37:10.592Z,13.85
2022-12-25T16:39:38.183Z,13.25
2022-12-25T16:42:05.881Z,15.07
2022-12-25T16:44:37.446Z,12.52
2022-12-25T16:47:05.085Z,14.35
2022-12-25T16:49:32.703Z,12.93
2022-12-25T16:52:00.274Z,16.00
2022-12-25T16:54:27.828Z,16.75
2022-12-25T16:56:55.448Z,18.02
2022-12-25T16:59:22.981Z,19.48
2022-12-25T17:01:50.712Z,17.88
2022-12-25T17:04:27.497Z,20.70
2022-12-25T17:06:55.106Z,19.77
2022-12-25T17:09:22.762Z,20.67
2022-12-25T17:11:50.328Z,22.45
2022-12-25T17:14:17.958Z,20.65
2022-12-25T17:16:45.777Z,20.10
2022-12-25T17:19:20.200Z,19.50
2022-12-25T17:21:48.310Z,19.30
2022-12-25T17:24:16.254Z,19.63
2022-12-25T17:26:44.655Z,19.20
2022-12-25T17:29:17.165Z,17.90
2022-12-25T17:31:49.562Z,18.42
2022-12-25T17:34:17.214Z,16.25
2022-12-25T17:36:44.970Z,16.85
2022-12-25T17:39:12.782Z,19.20
2022-12-25T17:41:40.314Z,20.42
2022-12-25T17:44:07.930Z,22.70
2022-12-25T17:46:35.541Z,21.45
2022-12-25T17:49:03.277Z,21.45
2022-12-25T17:51:32.628Z,23.90
2022-12-25T17:54:03.091Z,20.27
2022-12-25T17:56:31.449Z,20.05
2022-12-25T17:59:03.482Z,18.98
2022-12-25T18:01:31.166Z,20.83
2022-12-25T18:04:00.519Z,21.25
2022-12-25T18:06:29.618Z,21.38
2022-12-25T18:08:58.854Z,21.50
2022-12-25T18:11:32.836Z,20.98
2022-12-25T18:14:03.849Z,19.52
2022-12-25T18:16:33.946Z,21.65
2022-12-25T18:19:02.136Z,21.42
2022-12-25T18:21:30.635Z,24.13
2022-12-25T18:23:58.300Z,21.58
2022-12-25T18:26:28.683Z,19.20
2022-12-25T18:28:57.448Z,18.17
2022-12-25T18:31:27.647Z,19.88
2022-12-25T18:33:55.421Z,18.55
2022-12-25T18:36:25.789Z,20.13
2022-12-25T18:38:54.890Z,21.20
2022-12-25T18:41:23.466Z,19.20
2022-12-25T18:43:55.262Z,19.02
2022-12-25T18:46:28.103Z,18.73
2022-12-25T18:48:57.272Z,20.75
2022-12-25T18:51:28.677Z,17.05
2022-12-25T18:54:01.600Z,17.92
2022-12-25T18:56:29.123Z,18.38
2022-12-25T18:58:56.614Z,19.52
2022-12-25T19:01:26.169Z,19.25
2022-12-25T19:04:01.955Z,19.88
2022-12-25T19:06:33.179Z,19.67
2022-12-25T19:09:00.787Z,18.80
2022-12-25T19:11:28.279Z,18.02
2022-12-25T19:13:55.742Z,17.10
2022-12-25T19:16:23.304Z,17.42
2022-12-25T19:18:50.916Z,18.05
2022-12-25T19:21:18.438Z,17.65
2022-12-25T19:23:46.247Z,16.83
2022-12-25T19:26:13.994Z,12.80
2022-12-25T19:28:41.870Z,14.50
2022-12-25T19:31:11.764Z,14.63
2022-12-25T19:33:41.611Z,14.70
2022-12-25T19:36:12.649Z,17.42
2022-12-25T19:38:40.157Z,16.10
2022-12-25T19:41:15.773Z,17.58
2022-12-25T19:43:45.631Z,14.40
2022-12-25T19:46:37.357Z,15.38
2022-12-25T19:49:05.698Z,15.77
2022-12-25T19:51:36.643Z,16.90
2022-12-25T19:54:05.702Z,15.82
2022-12-25T19:56:34.144Z,14.30
2022-12-25T19:59:01.778Z,17.02
2022-12-25T20:01:30.667Z,17.17
2022-12-25T20:03:58.947Z,17.67
2022-12-25T20:06:32.648Z,16.20
2022-12-25T20:09:07.727Z,17.10
2022-12-25T20:11:36.932Z,16.15
2022-12-25T20:14:05.321Z,15.93
2022-12-25T20:16:33.232Z,18.48
2022-12-25T20:19:00.813Z,16.20
2022-12-25T20:21:29.810Z,17.42
2022-12-25T20:23:58.048Z,17.35
2022-12-25T20:26:29.427Z,18.70
2022-12-25T20:28:58.087Z,18.40
2022-12-25T20:31:31.998Z,16.55
2022-12-25T20:34:02.463Z,15.85
2022-12-25T20:36:36.343Z,16.27
2022-12-25T20:39:05.325Z,16.98
2022-12-25T20:41:32.875Z,16.50
2022-12-25T20:44:01.946Z,15.68
2022-12-25T20:46:29.653Z,17.08
2022-12-25T20:48:57.185Z,15.13
2022-12-25T20:51:27.267Z,15.77
2022-12-25T20:53:55.373Z,16.23
2022-12-25T20:56:25.630Z,16.23
2022-12-25T20:58:57.375Z,16.63
2022-12-25T21:01:25.901Z,15.00
2022-12-25T21:03:54.621Z,17.55
2022-12-25T21:06:23.089Z,17.60
2022-12-25T21:08:50.889Z,18.10
2022-12-25T21:11:18.570Z,18.73
2022-12-25T21:13:46.911Z,18.98
2022-12-25T21:16:21.454Z,17.50
2022-12-25T21:18:50.566Z,17.35
2022-12-25T21:21:18.263Z,17.80
2022-12-25T21:23:45.889Z,17.67
2022-12-25T21:26:25.184Z,18.58
2022-12-25T21:28:55.832Z,18.83
2022-12-25T21:31:24.485Z,15.45
2022-12-25T21:33:54.746Z,15.23
2022-12-25T21:36:29.535Z,17.17
2022-12-25T21:39:03.049Z,17.40
2022-12-25T21:41:32.462Z,17.77
2022-12-25T21:44:00.685Z,18.25
2022-12-25T21:46:28.750Z,16.13
2022-12-25T21:48:56.769Z,16.95
2022-12-25T21:51:44.733Z,17.65
2022-12-25T21:54:13.291Z,18.15
2022-12-25T21:56:44.829Z,18.25
2022-12-25T21:59:16.390Z,17.25
2022-12-25T22:01:44.745Z,16.23
2022-12-25T22:04:14.286Z,16.08
2022-12-25T22:06:59.563Z,16.15
2022-12-25T22:09:27.094Z,15.43
2022-12-25T22:12:12.120Z,15.23
2022-12-25T22:14:59.175Z,13.40
2022-12-25T22:17:49.943Z,16.08
2022-12-25T22:20:19.223Z,13.43
2022-12-25T22:22:48.224Z,13.00
2022-12-25T22:25:16.897Z,14.35
2022-12-25T22:27:46.064Z,14.05
2022-12-25T22:30:20.645Z,13.93
2022-12-25T22:32:48.319Z,12.85
2022-12-25T22:35:16.957Z,13.75
2022-12-25T22:37:44.833Z,13.13
2022-12-25T22:40:15.825Z,11.93
2022-12-25T22:42:43.576Z,12.15
2022-12-25T22:45:11.937Z,10.95
2022-12-25T22:47:39.621Z,10.38
2022-12-25T22:50:07.663Z,11.20
2022-12-25T22:52:35.236Z,10.45
2022-12-25T22:55:03.009Z,11.85
2022-12-25T22:57:30.578Z,12.13
2022-12-25T22:59:58.256Z,9.50
2022-12-25T23:02:26.124Z,11.30
2022-12-25T23:04:53.882Z,11.02
2022-12-25T23:07:21.357Z,12.18
2022-12-25T23:09:48.937Z,11.68
2022-12-25T23:12:30.453Z,11.95
2022-12-25T23:14:58.491Z,10.80
2022-12-25T23:17:43.713Z,12.68
2022-12-25T23:20:31.613Z,12.95
2022-12-25T23:23:16.660Z,12.18
2022-12-25T23:26:01.943Z,12.85
2022-12-25T23:28:46.896Z,10.60
2022-12-25T23:31:14.503Z,11.07
2022-12-25T23:33:42.646Z,11.60
2022-12-25T23:36:10.419Z,10.98
2022-12-25T23:38:37.975Z,12.75
2022-12-25T23:41:05.556Z,12.05
2022-12-25T23:43:33.138Z,11.50
2022-12-25T23:46:00.737Z,12.40
2022-12-25T23:48:29.849Z,11.20
2022-12-25T23:50:57.618Z,13.20
2022-12-25T23:53:25.157Z,12.57
2022-12-25T23:55:55.871Z,13.27
2022-12-25T23:58:23.634Z,12.82
